sensor_id;sensor_type;location;lat;lon;timestamp;P1;durP1;ratioP1;P2;durP2;ratioP2
63087;SDS011;49173;43.164;27.786;2022-11-15T00:00:25;21.23;;;14.13;;
63087;SDS011;49173;43.164;27.786;2022-11-15T00:02:54;18.90;;;12.77;;
63087;SDS011;49173;43.164;27.786;2022-11-15T00:05:20;22.80;;;12.77;;
63087;SDS011;49173;43.164;27.786;2022-11-15T00:07:46;18.52;;;12.57;;
63087;SDS011;49173;43.164;27.786;2022-11-15T00:10:12;21.65;;;13.63;;
63087;SDS011;49173;43.164;27.786;2022-11-15T00:12:39;24.55;;;14.32;;
63087;SDS011;49173;43.164;27.786;2022-11-15T00:15:06;19.63;;;14.27;;
63087;SDS011;49173;43.164;27.786;2022-11-15T00:17:32;27.63;;;15.88;;
63087;SDS011;49173;43.164;27.786;2022-11-15T00:19:59;27.00;;;17.92;;
63087;SDS011;49173;43.164;27.786;2022-11-15T00:22:24;28.42;;;19.27;;
63087;SDS011;49173;43.164;27.786;2022-11-15T00:24:56;29.38;;;18.75;;
63087;SDS011;49173;43.164;27.786;2022-11-15T00:27:21;22.25;;;15.43;;
63087;SDS011;49173;43.164;27.786;2022-11-15T00:29:47;25.48;;;13.90;;
63087;SDS011;49173;43.164;27.786;2022-11-15T00:32:13;19.80;;;12.77;;
63087;SDS011;49173;43.164;27.786;2022-11-15T00:34:39;19.35;;;12.23;;
63087;SDS011;49173;43.164;27.786;2022-11-15T00:37:05;18.83;;;11.68;;
63087;SDS011;49173;43.164;27.786;2022-11-15T00:39:31;17.65;;;11.05;;
63087;SDS011;49173;43.164;27.786;2022-11-15T00:41:57;20.77;;;11.70;;
63087;SDS011;49173;43.164;27.786;2022-11-15T00:44:23;18.98;;;10.32;;
63087;SDS011;49173;43.164;27.786;2022-11-15T00:46:48;18.85;;;12.55;;
63087;SDS011;49173;43.164;27.786;2022-11-15T00:49:14;20.48;;;11.65;;
63087;SDS011;49173;43.164;27.786;2022-11-15T00:51:41;18.45;;;12.40;;
63087;SDS011;49173;43.164;27.786;2022-11-15T00:54:07;17.45;;;12.45;;
63087;SDS011;49173;43.164;27.786;2022-11-15T00:56:32;19.23;;;12.05;;
63087;SDS011;49173;43.164;27.786;2022-11-15T00:58:58;19.75;;;12.00;;
63087;SDS011;49173;43.164;27.786;2022-11-15T01:01:24;21.35;;;13.20;;
63087;SDS011;49173;43.164;27.786;2022-11-15T01:03:50;23.95;;;15.07;;
63087;SDS011;49173;43.164;27.786;2022-11-15T01:06:15;22.75;;;15.15;;
63087;SDS011;49173;43.164;27.786;2022-11-15T01:08:41;25.40;;;16.63;;
63087;SDS011;49173;43.164;27.786;2022-11-15T01:11:08;35.42;;;19.05;;
63087;SDS011;49173;43.164;27.786;2022-11-15T01:13:37;29.13;;;19.95;;
63087;SDS011;49173;43.164;27.786;2022-11-15T01:16:07;29.17;;;18.20;;
63087;SDS011;49173;43.164;27.786;2022-11-15T01:18:34;30.38;;;20.70;;
63087;SDS011;49173;43.164;27.786;2022-11-15T01:21:04;29.77;;;20.65;;
63087;SDS011;49173;43.164;27.786;2022-11-15T01:23:40;29.83;;;18.80;;
63087;SDS011;49173;43.164;27.786;2022-11-15T01:26:07;30.85;;;19.23;;
63087;SDS011;49173;43.164;27.786;2022-11-15T01:28:35;26.40;;;17.15;;
63087;SDS011;49173;43.164;27.786;2022-11-15T01:31:04;27.55;;;16.20;;
63087;SDS011;49173;43.164;27.786;2022-11-15T01:33:33;21.97;;;13.93;;
63087;SDS011;49173;43.164;27.786;2022-11-15T01:36:05;20.05;;;12.45;;
63087;SDS011;49173;43.164;27.786;2022-11-15T01:38:33;19.42;;;12.05;;
63087;SDS011;49173;43.164;27.786;2022-11-15T01:40:59;15.75;;;10.63;;
63087;SDS011;49173;43.164;27.786;2022-11-15T01:43:30;16.63;;;11.77;;
63087;SDS011;49173;43.164;27.786;2022-11-15T01:46:01;18.70;;;11.23;;
63087;SDS011;49173;43.164;27.786;2022-11-15T01:48:34;18.02;;;10.52;;
63087;SDS011;49173;43.164;27.786;2022-11-15T01:51:01;18.88;;;9.45;;
63087;SDS011;49173;43.164;27.786;2022-11-15T01:55:57;13.68;;;8.50;;
63087;SDS011;49173;43.164;27.786;2022-11-15T01:58:23;11.85;;;8.25;;
63087;SDS011;49173;43.164;27.786;2022-11-15T02:00:49;10.98;;;7.88;;
63087;SDS011;49173;43.164;27.786;2022-11-15T02:03:16;10.70;;;7.82;;
63087;SDS011;49173;43.164;27.786;2022-11-15T02:05:41;13.60;;;7.70;;
63087;SDS011;49173;43.164;27.786;2022-11-15T02:08:10;10.38;;;6.80;;
63087;SDS011;49173;43.164;27.786;2022-11-15T02:10:48;12.57;;;6.57;;
63087;SDS011;49173;43.164;27.786;2022-11-15T02:13:14;10.40;;;6.63;;
63087;SDS011;49173;43.164;27.786;2022-11-15T02:15:51;10.80;;;6.47;;
63087;SDS011;49173;43.164;27.786;2022-11-15T02:23:53;9.07;;;7.00;;
63087;SDS011;49173;43.164;27.786;2022-11-15T02:26:57;11.13;;;6.75;;
63087;SDS011;49173;43.164;27.786;2022-11-15T02:29:30;13.52;;;6.28;;
63087;SDS011;49173;43.164;27.786;2022-11-15T02:32:19;9.07;;;6.00;;
63087;SDS011;49173;43.164;27.786;2022-11-15T02:34:57;9.80;;;6.15;;
63087;SDS011;49173;43.164;27.786;2022-11-15T02:40:33;11.00;;;7.10;;
63087;SDS011;49173;43.164;27.786;2022-11-15T02:43:08;10.50;;;6.50;;
63087;SDS011;49173;43.164;27.786;2022-11-15T02:46:01;10.13;;;6.82;;
63087;SDS011;49173;43.164;27.786;2022-11-15T02:48:30;8.48;;;6.10;;
63087;SDS011;49173;43.164;27.786;2022-11-15T02:50:58;10.02;;;6.78;;
63087;SDS011;49173;43.164;27.786;2022-11-15T02:53:25;8.98;;;6.40;;
63087;SDS011;49173;43.164;27.786;2022-11-15T02:55:51;8.98;;;6.25;;
63087;SDS011;49173;43.164;27.786;2022-11-15T02:58:28;8.98;;;5.95;;
63087;SDS011;49173;43.164;27.786;2022-11-15T03:06:33;10.68;;;6.47;;
63087;SDS011;49173;43.164;27.786;2022-11-15T03:09:09;9.82;;;6.50;;
63087;SDS011;49173;43.164;27.786;2022-11-15T03:14:17;8.63;;;6.00;;
63087;SDS011;49173;43.164;27.786;2022-11-15T03:16:47;8.80;;;6.47;;
63087;SDS011;49173;43.164;27.786;2022-11-15T03:19:46;11.18;;;7.45;;
63087;SDS011;49173;43.164;27.786;2022-11-15T03:22:16;17.25;;;8.82;;
63087;SDS011;49173;43.164;27.786;2022-11-15T03:24:46;14.57;;;9.73;;
63087;SDS011;49173;43.164;27.786;2022-11-15T03:27:17;15.52;;;10.65;;
63087;SDS011;49173;43.164;27.786;2022-11-15T03:29:50;16.00;;;8.57;;
63087;SDS011;49173;43.164;27.786;2022-11-15T03:32:22;14.05;;;7.95;;
63087;SDS011;49173;43.164;27.786;2022-11-15T03:35:12;10.95;;;7.45;;
63087;SDS011;49173;43.164;27.786;2022-11-15T03:40:41;15.98;;;10.55;;
63087;SDS011;49173;43.164;27.786;2022-11-15T03:45:46;16.58;;;11.52;;
63087;SDS011;49173;43.164;27.786;2022-11-15T03:48:24;16.77;;;11.38;;
63087;SDS011;49173;43.164;27.786;2022-11-15T03:50:52;18.48;;;11.10;;
63087;SDS011;49173;43.164;27.786;2022-11-15T03:53:19;15.43;;;9.43;;
63087;SDS011;49173;43.164;27.786;2022-11-15T03:55:47;13.93;;;9.07;;
63087;SDS011;49173;43.164;27.786;2022-11-15T03:58:13;13.20;;;9.05;;
63087;SDS011;49173;43.164;27.786;2022-11-15T04:00:39;13.65;;;8.40;;
63087;SDS011;49173;43.164;27.786;2022-11-15T04:03:05;13.98;;;8.88;;
63087;SDS011;49173;43.164;27.786;2022-11-15T04:05:30;13.32;;;9.07;;
63087;SDS011;49173;43.164;27.786;2022-11-15T04:07:56;14.63;;;10.35;;
63087;SDS011;49173;43.164;27.786;2022-11-15T04:10:22;11.80;;;8.60;;
63087;SDS011;49173;43.164;27.786;2022-11-15T04:12:49;11.63;;;7.63;;
63087;SDS011;49173;43.164;27.786;2022-11-15T04:15:18;11.75;;;7.30;;
63087;SDS011;49173;43.164;27.786;2022-11-15T04:17:47;12.10;;;7.50;;
63087;SDS011;49173;43.164;27.786;2022-11-15T04:20:18;10.57;;;6.82;;
63087;SDS011;49173;43.164;27.786;2022-11-15T04:23:07;9.18;;;6.82;;
63087;SDS011;49173;43.164;27.786;2022-11-15T04:25:55;12.03;;;7.77;;
63087;SDS011;49173;43.164;27.786;2022-11-15T04:28:24;10.13;;;7.45;;
63087;SDS011;49173;43.164;27.786;2022-11-15T04:30:49;10.55;;;7.18;;
63087;SDS011;49173;43.164;27.786;2022-11-15T04:33:15;12.18;;;7.80;;
63087;SDS011;49173;43.164;27.786;2022-11-15T04:35:41;9.80;;;7.00;;
63087;SDS011;49173;43.164;27.786;2022-11-15T04:38:08;10.60;;;7.07;;
63087;SDS011;49173;43.164;27.786;2022-11-15T04:40:35;11.35;;;7.53;;
63087;SDS011;49173;43.164;27.786;2022-11-15T04:43:02;13.35;;;8.48;;
63087;SDS011;49173;43.164;27.786;2022-11-15T04:45:29;11.80;;;8.43;;
63087;SDS011;49173;43.164;27.786;2022-11-15T04:47:54;15.57;;;10.18;;
63087;SDS011;49173;43.164;27.786;2022-11-15T04:50:20;23.55;;;12.40;;
63087;SDS011;49173;43.164;27.786;2022-11-15T04:52:53;19.77;;;13.32;;
63087;SDS011;49173;43.164;27.786;2022-11-15T04:55:19;20.38;;;13.95;;
63087;SDS011;49173;43.164;27.786;2022-11-15T04:57:45;19.35;;;12.93;;
63087;SDS011;49173;43.164;27.786;2022-11-15T05:00:12;21.83;;;13.10;;
63087;SDS011;49173;43.164;27.786;2022-11-15T05:02:40;17.70;;;12.10;;
63087;SDS011;49173;43.164;27.786;2022-11-15T05:05:24;15.95;;;11.02;;
63087;SDS011;49173;43.164;27.786;2022-11-15T05:07:50;18.77;;;11.75;;
63087;SDS011;49173;43.164;27.786;2022-11-15T05:10:16;15.70;;;10.50;;
63087;SDS011;49173;43.164;27.786;2022-11-15T05:12:42;20.77;;;10.52;;
63087;SDS011;49173;43.164;27.786;2022-11-15T05:15:08;15.00;;;10.10;;
63087;SDS011;49173;43.164;27.786;2022-11-15T05:17:35;15.20;;;9.80;;
63087;SDS011;49173;43.164;27.786;2022-11-15T05:20:00;15.05;;;10.45;;
63087;SDS011;49173;43.164;27.786;2022-11-15T05:22:26;13.82;;;9.35;;
63087;SDS011;49173;43.164;27.786;2022-11-15T05:24:52;17.25;;;10.00;;
63087;SDS011;49173;43.164;27.786;2022-11-15T05:27:18;13.13;;;9.10;;
63087;SDS011;49173;43.164;27.786;2022-11-15T05:29:44;13.95;;;9.73;;
63087;SDS011;49173;43.164;27.786;2022-11-15T05:32:09;15.05;;;10.15;;
63087;SDS011;49173;43.164;27.786;2022-11-15T05:34:37;17.83;;;10.38;;
63087;SDS011;49173;43.164;27.786;2022-11-15T05:37:03;14.10;;;9.82;;
63087;SDS011;49173;43.164;27.786;2022-11-15T05:39:28;17.48;;;10.45;;
63087;SDS011;49173;43.164;27.786;2022-11-15T05:41:55;19.67;;;9.25;;
63087;SDS011;49173;43.164;27.786;2022-11-15T05:44:30;13.90;;;9.40;;
63087;SDS011;49173;43.164;27.786;2022-11-15T05:46:56;13.27;;;8.95;;
63087;SDS011;49173;43.164;27.786;2022-11-15T05:49:24;13.38;;;8.73;;
63087;SDS011;49173;43.164;27.786;2022-11-15T05:51:55;13.52;;;8.25;;
63087;SDS011;49173;43.164;27.786;2022-11-15T05:54:24;11.00;;;7.33;;
63087;SDS011;49173;43.164;27.786;2022-11-15T05:56:50;11.82;;;7.93;;
63087;SDS011;49173;43.164;27.786;2022-11-15T05:59:16;12.32;;;8.15;;
63087;SDS011;49173;43.164;27.786;2022-11-15T06:01:43;19.45;;;14.40;;
63087;SDS011;49173;43.164;27.786;2022-11-15T06:04:10;21.38;;;15.38;;
63087;SDS011;49173;43.164;27.786;2022-11-15T06:06:35;14.88;;;11.20;;
63087;SDS011;49173;43.164;27.786;2022-11-15T06:09:02;12.38;;;8.77;;
63087;SDS011;49173;43.164;27.786;2022-11-15T06:11:27;13.38;;;8.18;;
63087;SDS011;49173;43.164;27.786;2022-11-15T06:13:53;13.93;;;8.13;;
63087;SDS011;49173;43.164;27.786;2022-11-15T06:16:19;14.75;;;9.80;;
63087;SDS011;49173;43.164;27.786;2022-11-15T06:18:45;11.77;;;7.93;;
63087;SDS011;49173;43.164;27.786;2022-11-15T06:21:11;13.40;;;8.70;;
63087;SDS011;49173;43.164;27.786;2022-11-15T06:23:36;12.70;;;8.63;;
63087;SDS011;49173;43.164;27.786;2022-11-15T06:26:02;12.13;;;8.48;;
63087;SDS011;49173;43.164;27.786;2022-11-15T06:28:29;13.32;;;9.23;;
63087;SDS011;49173;43.164;27.786;2022-11-15T06:31:01;15.40;;;10.68;;
63087;SDS011;49173;43.164;27.786;2022-11-15T06:33:28;13.45;;;8.30;;
63087;SDS011;49173;43.164;27.786;2022-11-15T06:35:54;13.18;;;7.70;;
63087;SDS011;49173;43.164;27.786;2022-11-15T06:38:19;14.52;;;8.40;;
63087;SDS011;49173;43.164;27.786;2022-11-15T06:40:45;15.93;;;10.75;;
63087;SDS011;49173;43.164;27.786;2022-11-15T06:43:11;14.68;;;10.63;;
63087;SDS011;49173;43.164;27.786;2022-11-15T06:45:36;12.75;;;8.57;;
63087;SDS011;49173;43.164;27.786;2022-11-15T06:48:02;14.70;;;8.77;;
63087;SDS011;49173;43.164;27.786;2022-11-15T06:50:28;12.32;;;7.88;;
63087;SDS011;49173;43.164;27.786;2022-11-15T06:52:54;16.08;;;9.25;;
63087;SDS011;49173;43.164;27.786;2022-11-15T06:55:19;14.73;;;10.00;;
63087;SDS011;49173;43.164;27.786;2022-11-15T06:57:49;16.50;;;10.43;;
63087;SDS011;49173;43.164;27.786;2022-11-15T07:00:17;13.73;;;8.70;;
63087;SDS011;49173;43.164;27.786;2022-11-15T07:02:44;12.10;;;8.00;;
63087;SDS011;49173;43.164;27.786;2022-11-15T07:05:11;12.05;;;8.32;;
63087;SDS011;49173;43.164;27.786;2022-11-15T07:07:37;17.52;;;11.48;;
63087;SDS011;49173;43.164;27.786;2022-11-15T07:10:03;13.73;;;8.93;;
63087;SDS011;49173;43.164;27.786;2022-11-15T07:12:31;18.20;;;9.45;;
63087;SDS011;49173;43.164;27.786;2022-11-15T07:14:56;16.10;;;8.50;;
63087;SDS011;49173;43.164;27.786;2022-11-15T07:17:22;11.27;;;7.60;;
63087;SDS011;49173;43.164;27.786;2022-11-15T07:19:48;12.93;;;7.35;;
63087;SDS011;49173;43.164;27.786;2022-11-15T07:22:13;11.60;;;7.85;;
63087;SDS011;49173;43.164;27.786;2022-11-15T07:24:40;13.00;;;7.60;;
63087;SDS011;49173;43.164;27.786;2022-11-15T07:27:05;13.98;;;8.65;;
63087;SDS011;49173;43.164;27.786;2022-11-15T07:29:31;19.48;;;10.40;;
63087;SDS011;49173;43.164;27.786;2022-11-15T07:31:57;19.13;;;10.02;;
63087;SDS011;49173;43.164;27.786;2022-11-15T07:34:23;16.85;;;10.18;;
63087;SDS011;49173;43.164;27.786;2022-11-15T07:36:49;14.05;;;9.50;;
63087;SDS011;49173;43.164;27.786;2022-11-15T07:39:14;19.75;;;11.85;;
63087;SDS011;49173;43.164;27.786;2022-11-15T07:41:40;16.50;;;10.13;;
63087;SDS011;49173;43.164;27.786;2022-11-15T07:44:06;16.60;;;9.80;;
63087;SDS011;49173;43.164;27.786;2022-11-15T07:46:32;16.70;;;11.50;;
63087;SDS011;49173;43.164;27.786;2022-11-15T07:48:57;18.60;;;12.93;;
63087;SDS011;49173;43.164;27.786;2022-11-15T07:51:23;28.50;;;14.02;;
63087;SDS011;49173;43.164;27.786;2022-11-15T07:53:49;20.42;;;11.75;;
63087;SDS011;49173;43.164;27.786;2022-11-15T07:56:15;18.38;;;9.50;;
63087;SDS011;49173;43.164;27.786;2022-11-15T07:58:41;14.35;;;9.20;;
63087;SDS011;49173;43.164;27.786;2022-11-15T08:01:07;14.27;;;9.00;;
63087;SDS011;49173;43.164;27.786;2022-11-15T08:03:34;15.20;;;8.65;;
63087;SDS011;49173;43.164;27.786;2022-11-15T08:06:01;16.33;;;8.75;;
63087;SDS011;49173;43.164;27.786;2022-11-15T08:08:27;16.65;;;10.07;;
63087;SDS011;49173;43.164;27.786;2022-11-15T08:10:53;18.63;;;10.23;;
63087;SDS011;49173;43.164;27.786;2022-11-15T08:13:19;18.00;;;9.35;;
63087;SDS011;49173;43.164;27.786;2022-11-15T08:15:44;13.52;;;9.77;;
63087;SDS011;49173;43.164;27.786;2022-11-15T08:18:14;16.08;;;10.50;;
63087;SDS011;49173;43.164;27.786;2022-11-15T08:20:42;27.70;;;12.68;;
63087;SDS011;49173;43.164;27.786;2022-11-15T08:23:09;16.48;;;10.93;;
63087;SDS011;49173;43.164;27.786;2022-11-15T08:25:36;21.10;;;11.02;;
63087;SDS011;49173;43.164;27.786;2022-11-15T08:28:03;14.00;;;9.50;;
63087;SDS011;49173;43.164;27.786;2022-11-15T08:30:33;15.13;;;9.60;;
63087;SDS011;49173;43.164;27.786;2022-11-15T08:33:02;15.30;;;10.43;;
63087;SDS011;49173;43.164;27.786;2022-11-15T08:35:28;20.25;;;10.48;;
63087;SDS011;49173;43.164;27.786;2022-11-15T08:37:53;13.70;;;9.70;;
63087;SDS011;49173;43.164;27.786;2022-11-15T08:40:20;16.23;;;9.82;;
63087;SDS011;49173;43.164;27.786;2022-11-15T08:42:46;13.93;;;8.95;;
63087;SDS011;49173;43.164;27.786;2022-11-15T08:45:13;16.75;;;9.75;;
63087;SDS011;49173;43.164;27.786;2022-11-15T08:47:39;16.33;;;10.55;;
63087;SDS011;49173;43.164;27.786;2022-11-15T08:50:05;16.13;;;9.65;;
63087;SDS011;49173;43.164;27.786;2022-11-15T08:52:31;18.13;;;10.80;;
63087;SDS011;49173;43.164;27.786;2022-11-15T08:54:57;17.55;;;12.20;;
63087;SDS011;49173;43.164;27.786;2022-11-15T08:57:23;15.38;;;8.90;;
63087;SDS011;49173;43.164;27.786;2022-11-15T08:59:49;13.82;;;8.60;;
63087;SDS011;49173;43.164;27.786;2022-11-15T09:02:15;17.13;;;9.70;;
63087;SDS011;49173;43.164;27.786;2022-11-15T09:04:42;15.85;;;10.00;;
63087;SDS011;49173;43.164;27.786;2022-11-15T09:07:11;18.10;;;10.27;;
63087;SDS011;49173;43.164;27.786;2022-11-15T09:09:38;21.33;;;12.05;;
63087;SDS011;49173;43.164;27.786;2022-11-15T09:12:05;14.00;;;9.73;;
63087;SDS011;49173;43.164;27.786;2022-11-15T09:14:31;21.30;;;11.65;;
63087;SDS011;49173;43.164;27.786;2022-11-15T09:16:58;14.73;;;9.63;;
63087;SDS011;49173;43.164;27.786;2022-11-15T09:19:24;15.25;;;7.72;;
63087;SDS011;49173;43.164;27.786;2022-11-15T09:21:50;13.70;;;7.43;;
63087;SDS011;49173;43.164;27.786;2022-11-15T09:24:16;11.93;;;7.03;;
63087;SDS011;49173;43.164;27.786;2022-11-15T09:26:42;10.23;;;7.28;;
63087;SDS011;49173;43.164;27.786;2022-11-15T09:29:08;10.63;;;6.97;;
63087;SDS011;49173;43.164;27.786;2022-11-15T09:31:34;11.18;;;6.90;;
63087;SDS011;49173;43.164;27.786;2022-11-15T09:34:00;12.07;;;7.25;;
63087;SDS011;49173;43.164;27.786;2022-11-15T09:36:27;11.05;;;8.18;;
63087;SDS011;49173;43.164;27.786;2022-11-15T09:38:53;11.45;;;8.32;;
63087;SDS011;49173;43.164;27.786;2022-11-15T09:41:29;15.75;;;9.48;;
63087;SDS011;49173;43.164;27.786;2022-11-15T09:47:10;11.35;;;7.00;;
63087;SDS011;49173;43.164;27.786;2022-11-15T09:49:50;13.65;;;7.43;;
63087;SDS011;49173;43.164;27.786;2022-11-15T09:52:22;11.43;;;7.47;;
63087;SDS011;49173;43.164;27.786;2022-11-15T09:54:49;10.02;;;6.68;;
63087;SDS011;49173;43.164;27.786;2022-11-15T10:00:18;10.88;;;7.50;;
63087;SDS011;49173;43.164;27.786;2022-11-15T10:05:40;13.18;;;7.47;;
63087;SDS011;49173;43.164;27.786;2022-11-15T10:08:23;10.50;;;6.10;;
63087;SDS011;49173;43.164;27.786;2022-11-15T10:11:11;8.32;;;5.07;;
63087;SDS011;49173;43.164;27.786;2022-11-15T10:13:45;7.57;;;4.97;;
63087;SDS011;49173;43.164;27.786;2022-11-15T10:23:45;10.10;;;5.18;;
63087;SDS011;49173;43.164;27.786;2022-11-15T10:26:11;9.63;;;5.32;;
63087;SDS011;49173;43.164;27.786;2022-11-15T10:28:41;8.82;;;5.30;;
63087;SDS011;49173;43.164;27.786;2022-11-15T10:31:23;6.72;;;4.45;;
63087;SDS011;49173;43.164;27.786;2022-11-15T10:33:51;6.97;;;4.57;;
63087;SDS011;49173;43.164;27.786;2022-11-15T10:36:23;7.90;;;5.00;;
63087;SDS011;49173;43.164;27.786;2022-11-15T10:38:51;7.03;;;4.82;;
63087;SDS011;49173;43.164;27.786;2022-11-15T10:41:28;8.20;;;4.95;;
63087;SDS011;49173;43.164;27.786;2022-11-15T10:46:38;6.70;;;4.30;;
63087;SDS011;49173;43.164;27.786;2022-11-15T10:49:11;7.33;;;4.53;;
63087;SDS011;49173;43.164;27.786;2022-11-15T10:51:42;6.82;;;4.30;;
63087;SDS011;49173;43.164;27.786;2022-11-15T10:57:22;7.10;;;4.65;;
63087;SDS011;49173;43.164;27.786;2022-11-15T10:59:54;7.97;;;4.80;;
63087;SDS011;49173;43.164;27.786;2022-11-15T11:02:29;7.43;;;4.93;;
63087;SDS011;49173;43.164;27.786;2022-11-15T11:04:58;6.50;;;4.55;;
63087;SDS011;49173;43.164;27.786;2022-11-15T11:07:34;6.93;;;4.20;;
63087;SDS011;49173;43.164;27.786;2022-11-15T11:10:03;7.25;;;4.93;;
63087;SDS011;49173;43.164;27.786;2022-11-15T11:12:49;8.80;;;5.22;;
63087;SDS011;49173;43.164;27.786;2022-11-15T11:15:15;7.57;;;5.25;;
63087;SDS011;49173;43.164;27.786;2022-11-15T11:37:14;10.60;;;7.00;;
63087;SDS011;49173;43.164;27.786;2022-11-15T11:48:20;8.35;;;5.95;;
63087;SDS011;49173;43.164;27.786;2022-11-15T11:54:10;8.65;;;6.10;;
63087;SDS011;49173;43.164;27.786;2022-11-15T11:56:39;9.98;;;6.40;;
63087;SDS011;49173;43.164;27.786;2022-11-15T12:02:01;10.68;;;6.40;;
63087;SDS011;49173;43.164;27.786;2022-11-15T12:04:38;10.05;;;6.47;;
63087;SDS011;49173;43.164;27.786;2022-11-15T12:07:13;9.88;;;7.00;;
63087;SDS011;49173;43.164;27.786;2022-11-15T12:09:53;11.40;;;6.88;;
63087;SDS011;49173;43.164;27.786;2022-11-15T12:15:16;11.70;;;7.75;;
63087;SDS011;49173;43.164;27.786;2022-11-15T12:18:07;12.43;;;8.60;;
63087;SDS011;49173;43.164;27.786;2022-11-15T12:20:39;12.32;;;8.43;;
63087;SDS011;49173;43.164;27.786;2022-11-15T12:23:13;11.70;;;7.97;;
63087;SDS011;49173;43.164;27.786;2022-11-15T12:25:53;11.55;;;8.07;;
63087;SDS011;49173;43.164;27.786;2022-11-15T12:33:46;11.95;;;8.68;;
63087;SDS011;49173;43.164;27.786;2022-11-15T12:41:45;11.38;;;8.85;;
63087;SDS011;49173;43.164;27.786;2022-11-15T12:45:23;15.38;;;8.20;;
63087;SDS011;49173;43.164;27.786;2022-11-15T12:47:23;11.90;;;8.27;;
63087;SDS011;49173;43.164;27.786;2022-11-15T12:49:49;11.68;;;7.70;;
63087;SDS011;49173;43.164;27.786;2022-11-15T12:52:16;12.38;;;7.85;;
63087;SDS011;49173;43.164;27.786;2022-11-15T12:59:52;11.60;;;7.53;;
63087;SDS011;49173;43.164;27.786;2022-11-15T13:02:35;9.73;;;7.25;;
63087;SDS011;49173;43.164;27.786;2022-11-15T13:17:45;11.65;;;8.38;;
63087;SDS011;49173;43.164;27.786;2022-11-15T13:30:39;11.63;;;7.97;;
63087;SDS011;49173;43.164;27.786;2022-11-15T13:33:18;15.80;;;7.47;;
63087;SDS011;49173;43.164;27.786;2022-11-15T13:35:46;12.15;;;7.50;;
63087;SDS011;49173;43.164;27.786;2022-11-15T13:40:49;11.50;;;9.38;;
63087;SDS011;49173;43.164;27.786;2022-11-15T13:46:04;15.02;;;9.00;;
63087;SDS011;49173;43.164;27.786;2022-11-15T13:48:48;14.00;;;7.65;;
63087;SDS011;49173;43.164;27.786;2022-11-15T13:54:18;9.93;;;7.30;;
63087;SDS011;49173;43.164;27.786;2022-11-15T13:56:49;12.15;;;7.93;;
63087;SDS011;49173;43.164;27.786;2022-11-15T13:59:33;10.85;;;8.20;;
63087;SDS011;49173;43.164;27.786;2022-11-15T14:02:14;13.07;;;8.07;;
63087;SDS011;49173;43.164;27.786;2022-11-15T14:05:25;14.05;;;10.00;;
63087;SDS011;49173;43.164;27.786;2022-11-15T14:07:55;12.40;;;8.77;;
63087;SDS011;49173;43.164;27.786;2022-11-15T14:10:33;10.95;;;9.25;;
63087;SDS011;49173;43.164;27.786;2022-11-15T14:13:01;10.85;;;7.07;;
63087;SDS011;49173;43.164;27.786;2022-11-15T14:17:59;12.30;;;9.43;;
63087;SDS011;49173;43.164;27.786;2022-11-15T14:22:54;6.88;;;4.43;;
63087;SDS011;49173;43.164;27.786;2022-11-15T14:25:22;8.05;;;4.35;;
63087;SDS011;49173;43.164;27.786;2022-11-15T14:30:52;7.45;;;4.00;;
63087;SDS011;49173;43.164;27.786;2022-11-15T14:35:57;8.70;;;4.35;;
63087;SDS011;49173;43.164;27.786;2022-11-15T14:38:27;6.50;;;3.95;;
63087;SDS011;49173;43.164;27.786;2022-11-15T14:40:53;7.18;;;4.47;;
63087;SDS011;49173;43.164;27.786;2022-11-15T14:43:20;7.65;;;4.05;;
63087;SDS011;49173;43.164;27.786;2022-11-15T14:45:46;7.90;;;5.00;;
63087;SDS011;49173;43.164;27.786;2022-11-15T14:48:12;11.13;;;7.72;;
63087;SDS011;49173;43.164;27.786;2022-11-15T14:50:37;8.80;;;4.93;;
63087;SDS011;49173;43.164;27.786;2022-11-15T14:53:04;8.05;;;4.55;;
63087;SDS011;49173;43.164;27.786;2022-11-15T14:55:33;5.90;;;4.10;;
63087;SDS011;49173;43.164;27.786;2022-11-15T14:58:04;7.53;;;3.88;;
63087;SDS011;49173;43.164;27.786;2022-11-15T15:00:35;6.68;;;4.43;;
63087;SDS011;49173;43.164;27.786;2022-11-15T15:03:02;8.30;;;4.63;;
63087;SDS011;49173;43.164;27.786;2022-11-15T15:05:36;8.10;;;4.85;;
63087;SDS011;49173;43.164;27.786;2022-11-15T15:08:04;8.80;;;4.88;;
63087;SDS011;49173;43.164;27.786;2022-11-15T15:10:31;12.48;;;7.57;;
63087;SDS011;49173;43.164;27.786;2022-11-15T15:12:59;13.00;;;8.37;;
63087;SDS011;49173;43.164;27.786;2022-11-15T15:15:26;11.05;;;5.10;;
63087;SDS011;49173;43.164;27.786;2022-11-15T15:17:58;6.85;;;4.43;;
63087;SDS011;49173;43.164;27.786;2022-11-15T15:20:24;6.75;;;4.50;;
63087;SDS011;49173;43.164;27.786;2022-11-15T15:22:49;7.75;;;4.65;;
63087;SDS011;49173;43.164;27.786;2022-11-15T15:27:46;6.28;;;4.60;;
63087;SDS011;49173;43.164;27.786;2022-11-15T15:30:12;5.53;;;4.20;;
63087;SDS011;49173;43.164;27.786;2022-11-15T15:32:38;6.45;;;4.78;;
63087;SDS011;49173;43.164;27.786;2022-11-15T15:35:04;6.75;;;5.50;;
63087;SDS011;49173;43.164;27.786;2022-11-15T15:37:30;10.70;;;6.65;;
63087;SDS011;49173;43.164;27.786;2022-11-15T15:39:58;14.15;;;9.73;;
63087;SDS011;49173;43.164;27.786;2022-11-15T15:42:24;15.80;;;11.55;;
63087;SDS011;49173;43.164;27.786;2022-11-15T15:44:50;16.15;;;11.25;;
63087;SDS011;49173;43.164;27.786;2022-11-15T15:47:20;15.95;;;9.07;;
63087;SDS011;49173;43.164;27.786;2022-11-15T15:49:47;15.18;;;10.57;;
63087;SDS011;49173;43.164;27.786;2022-11-15T15:52:15;13.23;;;7.90;;
63087;SDS011;49173;43.164;27.786;2022-11-15T15:54:41;9.15;;;6.28;;
63087;SDS011;49173;43.164;27.786;2022-11-15T15:57:07;8.57;;;6.43;;
63087;SDS011;49173;43.164;27.786;2022-11-15T15:59:36;11.80;;;6.90;;
63087;SDS011;49173;43.164;27.786;2022-11-15T16:02:02;10.77;;;7.30;;
63087;SDS011;49173;43.164;27.786;2022-11-15T16:04:28;8.13;;;4.72;;
63087;SDS011;49173;43.164;27.786;2022-11-15T16:07:00;7.85;;;4.90;;
63087;SDS011;49173;43.164;27.786;2022-11-15T16:09:26;5.88;;;4.10;;
63087;SDS011;49173;43.164;27.786;2022-11-15T16:12:10;6.28;;;4.18;;
63087;SDS011;49173;43.164;27.786;2022-11-15T16:14:36;8.15;;;4.72;;
63087;SDS011;49173;43.164;27.786;2022-11-15T16:17:02;6.88;;;4.55;;
63087;SDS011;49173;43.164;27.786;2022-11-15T16:19:29;6.78;;;4.43;;
63087;SDS011;49173;43.164;27.786;2022-11-15T16:21:55;7.60;;;4.30;;
63087;SDS011;49173;43.164;27.786;2022-11-15T16:24:21;8.18;;;4.95;;
63087;SDS011;49173;43.164;27.786;2022-11-15T16:26:47;9.10;;;6.97;;
63087;SDS011;49173;43.164;27.786;2022-11-15T16:29:16;9.40;;;7.03;;
63087;SDS011;49173;43.164;27.786;2022-11-15T16:31:42;13.60;;;8.05;;
63087;SDS011;49173;43.164;27.786;2022-11-15T16:34:08;13.30;;;8.15;;
63087;SDS011;49173;43.164;27.786;2022-11-15T16:36:34;13.10;;;8.60;;
63087;SDS011;49173;43.164;27.786;2022-11-15T16:39:01;12.45;;;7.40;;
63087;SDS011;49173;43.164;27.786;2022-11-15T16:41:29;8.52;;;6.18;;
63087;SDS011;49173;43.164;27.786;2022-11-15T16:43:55;9.75;;;6.65;;
63087;SDS011;49173;43.164;27.786;2022-11-15T16:46:23;10.82;;;7.03;;
63087;SDS011;49173;43.164;27.786;2022-11-15T16:48:50;11.20;;;6.88;;
63087;SDS011;49173;43.164;27.786;2022-11-15T16:51:16;8.85;;;5.60;;
63087;SDS011;49173;43.164;27.786;2022-11-15T16:53:42;11.48;;;7.68;;
63087;SDS011;49173;43.164;27.786;2022-11-15T16:58:56;27.67;;;15.88;;